sensor_id;sensor_type;location;lat;lon;timestamp;P1;durP1;ratioP1;P2;durP2;ratioP2
5929;SDS011;2990;48.746;9.236;2022-08-01T00:02:20;899.30;;;834.38;;
5929;SDS011;2990;48.746;9.236;2022-08-01T00:04:46;916.45;;;849.53;;
5929;SDS011;2990;48.746;9.236;2022-08-01T00:07:12;855.70;;;794.83;;
5929;SDS011;2990;48.746;9.236;2022-08-01T00:09:37;871.50;;;809.25;;
5929;SDS011;2990;48.746;9.236;2022-08-01T00:12:03;836.72;;;777.20;;
5929;SDS011;2990;48.746;9.236;2022-08-01T00:14:30;813.80;;;756.33;;
5929;SDS011;2990;48.746;9.236;2022-08-01T00:16:55;807.78;;;751.17;;
5929;SDS011;2990;48.746;9.236;2022-08-01T00:19:21;807.67;;;750.40;;
5929;SDS011;2990;48.746;9.236;2022-08-01T00:21:46;811.60;;;754.63;;
5929;SDS011;2990;48.746;9.236;2022-08-01T00:24:12;770.75;;;717.53;;
5929;SDS011;2990;48.746;9.236;2022-08-01T00:26:38;796.33;;;740.13;;
5929;SDS011;2990;48.746;9.236;2022-08-01T00:29:03;768.65;;;715.03;;
5929;SDS011;2990;48.746;9.236;2022-08-01T00:31:29;708.00;;;659.03;;
5929;SDS011;2990;48.746;9.236;2022-08-01T00:33:54;694.13;;;646.10;;
5929;SDS011;2990;48.746;9.236;2022-08-01T00:36:20;696.08;;;647.47;;
5929;SDS011;2990;48.746;9.236;2022-08-01T00:38:46;667.70;;;621.63;;
5929;SDS011;2990;48.746;9.236;2022-08-01T00:41:11;661.67;;;615.95;;
5929;SDS011;2990;48.746;9.236;2022-08-01T00:43:37;667.85;;;621.63;;
5929;SDS011;2990;48.746;9.236;2022-08-01T00:46:02;629.60;;;586.28;;
5929;SDS011;2990;48.746;9.236;2022-08-01T00:48:28;630.40;;;586.58;;
5929;SDS011;2990;48.746;9.236;2022-08-01T00:50:53;622.78;;;579.80;;
5929;SDS011;2990;48.746;9.236;2022-08-01T00:53:19;618.72;;;576.00;;
5929;SDS011;2990;48.746;9.236;2022-08-01T00:55:45;598.80;;;557.58;;
5929;SDS011;2990;48.746;9.236;2022-08-01T00:58:11;566.00;;;528.33;;
5929;SDS011;2990;48.746;9.236;2022-08-01T01:00:37;554.55;;;518.58;;
5929;SDS011;2990;48.746;9.236;2022-08-01T01:03:03;556.55;;;520.08;;
5929;SDS011;2990;48.746;9.236;2022-08-01T01:05:28;535.97;;;501.55;;
5929;SDS011;2990;48.746;9.236;2022-08-01T01:10:31;543.45;;;508.23;;
5929;SDS011;2990;48.746;9.236;2022-08-01T01:15:58;496.73;;;465.98;;
5929;SDS011;2990;48.746;9.236;2022-08-01T01:18:28;489.77;;;459.63;;
5929;SDS011;2990;48.746;9.236;2022-08-01T01:21:14;511.70;;;479.60;;
5929;SDS011;2990;48.746;9.236;2022-08-01T01:29:16;521.92;;;489.23;;
5929;SDS011;2990;48.746;9.236;2022-08-01T01:32:05;522.17;;;489.42;;
5929;SDS011;2990;48.746;9.236;2022-08-01T01:34:32;521.30;;;488.52;;
5929;SDS011;2990;48.746;9.236;2022-08-01T01:37:01;536.00;;;502.15;;
5929;SDS011;2990;48.746;9.236;2022-08-01T01:39:29;558.15;;;521.85;;
5929;SDS011;2990;48.746;9.236;2022-08-01T01:41:57;544.30;;;509.10;;
5929;SDS011;2990;48.746;9.236;2022-08-01T01:44:25;558.20;;;522.35;;
5929;SDS011;2990;48.746;9.236;2022-08-01T01:46:52;556.83;;;520.53;;
5929;SDS011;2990;48.746;9.236;2022-08-01T01:49:19;562.95;;;526.38;;
5929;SDS011;2990;48.746;9.236;2022-08-01T01:51:48;558.53;;;522.05;;
5929;SDS011;2990;48.746;9.236;2022-08-01T01:54:16;572.55;;;535.17;;
5929;SDS011;2990;48.746;9.236;2022-08-01T01:56:43;572.38;;;534.90;;
5929;SDS011;2990;48.746;9.236;2022-08-01T01:59:19;606.83;;;566.67;;
5929;SDS011;2990;48.746;9.236;2022-08-01T02:01:47;598.42;;;558.55;;
5929;SDS011;2990;48.746;9.236;2022-08-01T02:04:14;600.53;;;560.13;;
5929;SDS011;2990;48.746;9.236;2022-08-01T02:06:41;599.15;;;559.53;;
5929;SDS011;2990;48.746;9.236;2022-08-01T02:09:08;606.30;;;565.22;;
5929;SDS011;2990;48.746;9.236;2022-08-01T02:11:35;624.45;;;581.95;;
5929;SDS011;2990;48.746;9.236;2022-08-01T02:14:03;620.72;;;578.58;;
5929;SDS011;2990;48.746;9.236;2022-08-01T02:16:29;616.97;;;575.22;;
5929;SDS011;2990;48.746;9.236;2022-08-01T02:18:59;625.10;;;582.10;;
5929;SDS011;2990;48.746;9.236;2022-08-01T02:21:37;616.92;;;575.53;;
5929;SDS011;2990;48.746;9.236;2022-08-01T02:24:09;645.47;;;601.30;;
5929;SDS011;2990;48.746;9.236;2022-08-01T02:26:55;628.03;;;584.58;;
5929;SDS011;2990;48.746;9.236;2022-08-01T02:29:33;648.95;;;604.33;;
5929;SDS011;2990;48.746;9.236;2022-08-01T02:32:14;668.83;;;622.40;;
5929;SDS011;2990;48.746;9.236;2022-08-01T02:34:48;699.20;;;650.78;;
5929;SDS011;2990;48.746;9.236;2022-08-01T02:37:15;698.63;;;649.88;;
5929;SDS011;2990;48.746;9.236;2022-08-01T02:39:43;729.88;;;679.53;;
5929;SDS011;2990;48.746;9.236;2022-08-01T02:42:15;728.33;;;678.42;;
5929;SDS011;2990;48.746;9.236;2022-08-01T02:44:43;752.83;;;700.13;;
5929;SDS011;2990;48.746;9.236;2022-08-01T02:47:11;767.88;;;714.47;;
5929;SDS011;2990;48.746;9.236;2022-08-01T02:49:39;770.40;;;717.15;;
5929;SDS011;2990;48.746;9.236;2022-08-01T02:52:10;762.33;;;709.58;;
5929;SDS011;2990;48.746;9.236;2022-08-01T02:54:39;792.70;;;737.30;;
5929;SDS011;2990;48.746;9.236;2022-08-01T02:57:06;815.60;;;757.75;;
5929;SDS011;2990;48.746;9.236;2022-08-01T02:59:37;831.58;;;772.58;;
5929;SDS011;2990;48.746;9.236;2022-08-01T03:02:04;819.65;;;761.78;;
5929;SDS011;2990;48.746;9.236;2022-08-01T03:04:32;863.72;;;802.42;;
5929;SDS011;2990;48.746;9.236;2022-08-01T03:07:00;873.47;;;810.95;;
5929;SDS011;2990;48.746;9.236;2022-08-01T03:09:27;899.60;;;835.20;;
5929;SDS011;2990;48.746;9.236;2022-08-01T03:11:55;904.33;;;837.50;;
5929;SDS011;2990;48.746;9.236;2022-08-01T03:14:23;933.92;;;865.30;;
5929;SDS011;2990;48.746;9.236;2022-08-01T03:16:51;939.05;;;869.75;;
5929;SDS011;2990;48.746;9.236;2022-08-01T03:19:19;956.55;;;885.25;;
5929;SDS011;2990;48.746;9.236;2022-08-01T03:21:47;922.95;;;855.05;;
5929;SDS011;2990;48.746;9.236;2022-08-01T03:24:14;962.97;;;890.35;;
5929;SDS011;2990;48.746;9.236;2022-08-01T03:26:41;971.67;;;897.90;;
5929;SDS011;2990;48.746;9.236;2022-08-01T03:29:13;975.08;;;901.58;;
5929;SDS011;2990;48.746;9.236;2022-08-01T03:31:43;992.97;;;918.03;;
5929;SDS011;2990;48.746;9.236;2022-08-01T03:34:10;989.03;;;913.35;;
5929;SDS011;2990;48.746;9.236;2022-08-01T03:36:38;1000.20;;;922.42;;
5929;SDS011;2990;48.746;9.236;2022-08-01T03:39:17;1010.22;;;931.47;;
5929;SDS011;2990;48.746;9.236;2022-08-01T03:41:48;1024.53;;;944.00;;
5929;SDS011;2990;48.746;9.236;2022-08-01T03:44:20;1025.50;;;944.83;;
5929;SDS011;2990;48.746;9.236;2022-08-01T03:46:58;1043.80;;;959.65;;
5929;SDS011;2990;48.746;9.236;2022-08-01T03:49:29;1053.03;;;968.65;;
5929;SDS011;2990;48.746;9.236;2022-08-01T03:51:56;1056.75;;;971.78;;
5929;SDS011;2990;48.746;9.236;2022-08-01T03:54:24;1059.40;;;972.65;;
5929;SDS011;2990;48.746;9.236;2022-08-01T03:56:53;1040.40;;;955.00;;
5929;SDS011;2990;48.746;9.236;2022-08-01T03:59:20;1059.32;;;972.42;;
5929;SDS011;2990;48.746;9.236;2022-08-01T04:01:46;1085.63;;;993.55;;
5929;SDS011;2990;48.746;9.236;2022-08-01T04:04:13;1110.80;;;999.90;;
5929;SDS011;2990;48.746;9.236;2022-08-01T04:06:39;1091.85;;;996.05;;
5929;SDS011;2990;48.746;9.236;2022-08-01T04:09:09;1117.63;;;999.90;;
5929;SDS011;2990;48.746;9.236;2022-08-01T04:11:34;1123.40;;;999.90;;
5929;SDS011;2990;48.746;9.236;2022-08-01T04:14:00;1143.55;;;999.90;;
5929;SDS011;2990;48.746;9.236;2022-08-01T04:16:26;1145.63;;;999.90;;
5929;SDS011;2990;48.746;9.236;2022-08-01T04:18:51;1134.60;;;999.90;;
5929;SDS011;2990;48.746;9.236;2022-08-01T04:21:24;1168.13;;;999.90;;
5929;SDS011;2990;48.746;9.236;2022-08-01T04:23:56;1152.00;;;999.90;;
5929;SDS011;2990;48.746;9.236;2022-08-01T04:26:24;1156.35;;;999.90;;
5929;SDS011;2990;48.746;9.236;2022-08-01T04:28:54;1162.07;;;999.90;;
5929;SDS011;2990;48.746;9.236;2022-08-01T04:31:21;1170.28;;;999.90;;
5929;SDS011;2990;48.746;9.236;2022-08-01T04:33:51;1182.63;;;999.90;;
5929;SDS011;2990;48.746;9.236;2022-08-01T04:36:19;1174.35;;;999.90;;
5929;SDS011;2990;48.746;9.236;2022-08-01T04:38:48;1177.05;;;999.90;;
5929;SDS011;2990;48.746;9.236;2022-08-01T04:41:17;1193.25;;;999.90;;
5929;SDS011;2990;48.746;9.236;2022-08-01T04:43:43;1163.32;;;999.90;;
5929;SDS011;2990;48.746;9.236;2022-08-01T04:46:09;1188.15;;;999.90;;
5929;SDS011;2990;48.746;9.236;2022-08-01T04:48:37;1162.22;;;999.90;;
5929;SDS011;2990;48.746;9.236;2022-08-01T04:51:03;1185.57;;;999.90;;
5929;SDS011;2990;48.746;9.236;2022-08-01T04:53:36;1179.50;;;999.90;;
5929;SDS011;2990;48.746;9.236;2022-08-01T04:56:01;1179.50;;;999.90;;
5929;SDS011;2990;48.746;9.236;2022-08-01T04:58:27;1177.90;;;999.90;;
5929;SDS011;2990;48.746;9.236;2022-08-01T05:00:53;1168.75;;;999.90;;
5929;SDS011;2990;48.746;9.236;2022-08-01T05:03:18;1137.57;;;999.90;;
5929;SDS011;2990;48.746;9.236;2022-08-01T05:05:44;1120.57;;;999.90;;
5929;SDS011;2990;48.746;9.236;2022-08-01T05:08:09;1097.30;;;996.97;;
5929;SDS011;2990;48.746;9.236;2022-08-01T05:10:35;1119.32;;;999.90;;
5929;SDS011;2990;48.746;9.236;2022-08-01T05:13:01;1068.65;;;977.78;;
5929;SDS011;2990;48.746;9.236;2022-08-01T05:15:26;1075.72;;;984.33;;
5929;SDS011;2990;48.746;9.236;2022-08-01T05:17:52;1131.20;;;999.90;;
5929;SDS011;2990;48.746;9.236;2022-08-01T05:20:17;1132.28;;;999.90;;
5929;SDS011;2990;48.746;9.236;2022-08-01T05:22:43;1105.82;;;999.05;;
5929;SDS011;2990;48.746;9.236;2022-08-01T05:25:09;1122.60;;;999.90;;
5929;SDS011;2990;48.746;9.236;2022-08-01T05:27:35;1109.30;;;999.90;;
5929;SDS011;2990;48.746;9.236;2022-08-01T05:30:05;1108.13;;;999.90;;
5929;SDS011;2990;48.746;9.236;2022-08-01T05:32:32;1084.32;;;992.00;;
5929;SDS011;2990;48.746;9.236;2022-08-01T05:34:58;1055.18;;;969.10;;
5929;SDS011;2990;48.746;9.236;2022-08-01T05:37:24;1053.70;;;967.38;;
5929;SDS011;2990;48.746;9.236;2022-08-01T05:39:50;989.25;;;912.17;;
5929;SDS011;2990;48.746;9.236;2022-08-01T05:42:16;957.92;;;884.25;;
5929;SDS011;2990;48.746;9.236;2022-08-01T05:44:41;949.95;;;878.25;;
5929;SDS011;2990;48.746;9.236;2022-08-01T05:47:07;900.65;;;834.08;;
5929;SDS011;2990;48.746;9.236;2022-08-01T05:49:32;928.72;;;859.63;;
5929;SDS011;2990;48.746;9.236;2022-08-01T05:51:58;930.22;;;860.72;;
5929;SDS011;2990;48.746;9.236;2022-08-01T05:54:25;909.08;;;841.92;;
5929;SDS011;2990;48.746;9.236;2022-08-01T05:56:51;911.78;;;844.58;;
5929;SDS011;2990;48.746;9.236;2022-08-01T05:59:16;848.05;;;786.42;;
5929;SDS011;2990;48.746;9.236;2022-08-01T06:01:42;851.90;;;790.95;;
5929;SDS011;2990;48.746;9.236;2022-08-01T06:04:08;894.72;;;829.38;;
5929;SDS011;2990;48.746;9.236;2022-08-01T06:06:33;852.85;;;791.95;;
5929;SDS011;2990;48.746;9.236;2022-08-01T06:08:59;791.17;;;735.08;;
5929;SDS011;2990;48.746;9.236;2022-08-01T06:11:25;784.65;;;729.70;;
5929;SDS011;2990;48.746;9.236;2022-08-01T06:13:53;696.10;;;647.88;;
5929;SDS011;2990;48.746;9.236;2022-08-01T06:16:19;713.92;;;664.58;;
5929;SDS011;2990;48.746;9.236;2022-08-01T06:18:45;668.83;;;622.97;;
5929;SDS011;2990;48.746;9.236;2022-08-01T06:21:11;599.97;;;559.28;;
5929;SDS011;2990;48.746;9.236;2022-08-01T06:23:38;576.75;;;537.15;;
5929;SDS011;2990;48.746;9.236;2022-08-01T06:26:03;538.95;;;502.83;;
5929;SDS011;2990;48.746;9.236;2022-08-01T06:28:29;367.30;;;345.17;;
5929;SDS011;2990;48.746;9.236;2022-08-01T06:30:55;448.67;;;420.58;;
5929;SDS011;2990;48.746;9.236;2022-08-01T06:33:21;332.30;;;313.02;;
5929;SDS011;2990;48.746;9.236;2022-08-01T06:35:46;358.52;;;336.88;;
5929;SDS011;2990;48.746;9.236;2022-08-01T06:38:12;390.27;;;366.92;;
5929;SDS011;2990;48.746;9.236;2022-08-01T06:40:38;334.90;;;315.40;;
5929;SDS011;2990;48.746;9.236;2022-08-01T06:43:05;347.13;;;326.73;;
5929;SDS011;2990;48.746;9.236;2022-08-01T06:45:30;279.23;;;263.70;;
5929;SDS011;2990;48.746;9.236;2022-08-01T06:47:56;253.75;;;240.38;;
5929;SDS011;2990;48.746;9.236;2022-08-01T06:50:21;268.70;;;254.45;;
5929;SDS011;2990;48.746;9.236;2022-08-01T06:52:47;229.20;;;217.68;;
5929;SDS011;2990;48.746;9.236;2022-08-01T06:55:12;209.63;;;199.57;;
5929;SDS011;2990;48.746;9.236;2022-08-01T06:57:57;241.07;;;229.25;;
5929;SDS011;2990;48.746;9.236;2022-08-01T07:00:24;325.42;;;307.75;;
5929;SDS011;2990;48.746;9.236;2022-08-01T07:02:51;240.20;;;228.23;;
5929;SDS011;2990;48.746;9.236;2022-08-01T07:05:21;234.60;;;223.23;;
5929;SDS011;2990;48.746;9.236;2022-08-01T07:07:46;298.58;;;283.38;;
5929;SDS011;2990;48.746;9.236;2022-08-01T07:10:12;264.58;;;251.52;;
5929;SDS011;2990;48.746;9.236;2022-08-01T07:12:38;315.67;;;299.60;;
5929;SDS011;2990;48.746;9.236;2022-08-01T07:15:04;345.42;;;327.35;;
5929;SDS011;2990;48.746;9.236;2022-08-01T07:17:31;412.75;;;389.83;;
5929;SDS011;2990;48.746;9.236;2022-08-01T07:19:56;391.05;;;369.58;;
5929;SDS011;2990;48.746;9.236;2022-08-01T07:22:22;372.30;;;352.50;;
5929;SDS011;2990;48.746;9.236;2022-08-01T07:24:48;426.10;;;402.50;;
5929;SDS011;2990;48.746;9.236;2022-08-01T07:27:14;436.48;;;411.95;;
5929;SDS011;2990;48.746;9.236;2022-08-01T07:29:40;461.70;;;435.10;;
5929;SDS011;2990;48.746;9.236;2022-08-01T07:32:06;489.65;;;461.23;;
5929;SDS011;2990;48.746;9.236;2022-08-01T07:34:32;467.70;;;440.55;;
5929;SDS011;2990;48.746;9.236;2022-08-01T07:36:57;474.65;;;447.17;;
5929;SDS011;2990;48.746;9.236;2022-08-01T07:39:23;508.38;;;478.80;;
5929;SDS011;2990;48.746;9.236;2022-08-01T07:41:48;462.45;;;436.17;;
5929;SDS011;2990;48.746;9.236;2022-08-01T07:44:15;462.15;;;435.85;;
5929;SDS011;2990;48.746;9.236;2022-08-01T07:46:40;449.50;;;424.08;;
5929;SDS011;2990;48.746;9.236;2022-08-01T07:49:07;391.13;;;369.77;;
5929;SDS011;2990;48.746;9.236;2022-08-01T07:51:33;453.73;;;427.75;;
5929;SDS011;2990;48.746;9.236;2022-08-01T07:53:59;467.83;;;440.65;;
5929;SDS011;2990;48.746;9.236;2022-08-01T07:56:24;527.97;;;496.23;;
5929;SDS011;2990;48.746;9.236;2022-08-01T07:58:51;508.80;;;478.60;;
5929;SDS011;2990;48.746;9.236;2022-08-01T08:01:16;522.85;;;491.45;;
5929;SDS011;2990;48.746;9.236;2022-08-01T08:03:42;531.55;;;499.73;;
5929;SDS011;2990;48.746;9.236;2022-08-01T08:06:08;490.08;;;461.42;;
5929;SDS011;2990;48.746;9.236;2022-08-01T08:08:33;496.75;;;467.90;;
5929;SDS011;2990;48.746;9.236;2022-08-01T08:11:00;529.30;;;497.73;;
5929;SDS011;2990;48.746;9.236;2022-08-01T08:13:26;546.42;;;512.95;;
5929;SDS011;2990;48.746;9.236;2022-08-01T08:15:52;606.58;;;568.25;;
5929;SDS011;2990;48.746;9.236;2022-08-01T08:18:18;585.85;;;548.58;;
5929;SDS011;2990;48.746;9.236;2022-08-01T08:20:44;608.28;;;568.88;;
5929;SDS011;2990;48.746;9.236;2022-08-01T08:23:10;665.53;;;621.55;;
5929;SDS011;2990;48.746;9.236;2022-08-01T08:25:54;630.63;;;589.40;;
5929;SDS011;2990;48.746;9.236;2022-08-01T08:28:20;681.15;;;636.05;;
5929;SDS011;2990;48.746;9.236;2022-08-01T08:30:46;685.05;;;639.25;;
5929;SDS011;2990;48.746;9.236;2022-08-01T08:33:18;1999.90;;;999.90;;
5929;SDS011;2990;48.746;9.236;2022-08-01T08:35:44;1999.90;;;999.90;;
5929;SDS011;2990;48.746;9.236;2022-08-01T08:38:10;1999.90;;;999.90;;
5929;SDS011;2990;48.746;9.236;2022-08-01T08:40:38;1999.90;;;999.90;;
5929;SDS011;2990;48.746;9.236;2022-08-01T08:43:05;1999.90;;;999.90;;
5929;SDS011;2990;48.746;9.236;2022-08-01T08:45:32;1999.90;;;999.90;;
5929;SDS011;2990;48.746;9.236;2022-08-01T08:47:59;1999.90;;;999.90;;
5929;SDS011;2990;48.746;9.236;2022-08-01T08:50:27;1999.90;;;999.90;;
5929;SDS011;2990;48.746;9.236;2022-08-01T08:52:55;1999.90;;;999.90;;
5929;SDS011;2990;48.746;9.236;2022-08-01T08:55:24;1999.90;;;999.90;;
5929;SDS011;2990;48.746;9.236;2022-08-01T08:57:53;1999.90;;;999.90;;
5929;SDS011;2990;48.746;9.236;2022-08-01T09:00:20;1999.90;;;999.90;;
5929;SDS011;2990;48.746;9.236;2022-08-01T09:02:47;740.25;;;690.22;;
5929;SDS011;2990;48.746;9.236;2022-08-01T09:05:15;1999.90;;;999.90;;
5929;SDS011;2990;48.746;9.236;2022-08-01T09:07:42;637.08;;;595.08;;
5929;SDS011;2990;48.746;9.236;2022-08-01T09:10:08;1999.90;;;999.90;;
5929;SDS011;2990;48.746;9.236;2022-08-01T09:12:35;1999.90;;;999.90;;
5929;SDS011;2990;48.746;9.236;2022-08-01T09:15:02;1999.90;;;999.90;;
5929;SDS011;2990;48.746;9.236;2022-08-01T09:17:38;1999.90;;;999.90;;
5929;SDS011;2990;48.746;9.236;2022-08-01T09:20:08;1999.90;;;999.90;;
5929;SDS011;2990;48.746;9.236;2022-08-01T09:22:48;1999.90;;;999.90;;
5929;SDS011;2990;48.746;9.236;2022-08-01T09:25:15;1999.90;;;999.90;;
5929;SDS011;2990;48.746;9.236;2022-08-01T09:27:43;1999.90;;;999.90;;
5929;SDS011;2990;48.746;9.236;2022-08-01T09:30:14;1999.90;;;999.90;;
5929;SDS011;2990;48.746;9.236;2022-08-01T09:32:53;1999.90;;;999.90;;
5929;SDS011;2990;48.746;9.236;2022-08-01T09:35:29;1999.90;;;999.90;;
5929;SDS011;2990;48.746;9.236;2022-08-01T09:38:24;1999.90;;;999.90;;
5929;SDS011;2990;48.746;9.236;2022-08-01T09:40:59;1999.90;;;999.90;;
5929;SDS011;2990;48.746;9.236;2022-08-01T09:43:28;1999.90;;;999.90;;
5929;SDS011;2990;48.746;9.236;2022-08-01T09:45:56;1999.90;;;999.90;;
5929;SDS011;2990;48.746;9.236;2022-08-01T09:48:24;1999.90;;;999.90;;
5929;SDS011;2990;48.746;9.236;2022-08-01T09:50:52;1999.90;;;999.90;;
5929;SDS011;2990;48.746;9.236;2022-08-01T09:53:19;1999.90;;;999.90;;
5929;SDS011;2990;48.746;9.236;2022-08-01T09:55:45;1999.90;;;999.90;;
5929;SDS011;2990;48.746;9.236;2022-08-01T09:58:11;1999.90;;;999.90;;
5929;SDS011;2990;48.746;9.236;2022-08-01T10:00:37;1999.90;;;999.90;;
5929;SDS011;2990;48.746;9.236;2022-08-01T10:03:20;1999.90;;;999.90;;
5929;SDS011;2990;48.746;9.236;2022-08-01T10:05:46;1999.90;;;999.90;;
5929;SDS011;2990;48.746;9.236;2022-08-01T10:08:12;1999.90;;;999.90;;
5929;SDS011;2990;48.746;9.236;2022-08-01T10:10:40;1999.90;;;999.90;;
5929;SDS011;2990;48.746;9.236;2022-08-01T10:13:08;1999.90;;;999.90;;
5929;SDS011;2990;48.746;9.236;2022-08-01T10:15:35;1999.90;;;999.90;;
5929;SDS011;2990;48.746;9.236;2022-08-01T10:18:04;1999.90;;;999.90;;
5929;SDS011;2990;48.746;9.236;2022-08-01T10:20:35;1999.90;;;999.90;;
5929;SDS011;2990;48.746;9.236;2022-08-01T10:23:04;1999.90;;;999.90;;
5929;SDS011;2990;48.746;9.236;2022-08-01T10:25:37;1999.90;;;999.90;;
5929;SDS011;2990;48.746;9.236;2022-08-01T10:28:15;1999.90;;;999.90;;
5929;SDS011;2990;48.746;9.236;2022-08-01T10:30:44;1999.90;;;999.90;;
5929;SDS011;2990;48.746;9.236;2022-08-01T10:33:13;1999.90;;;999.90;;
5929;SDS011;2990;48.746;9.236;2022-08-01T10:35:45;1999.90;;;999.90;;
5929;SDS011;2990;48.746;9.236;2022-08-01T10:38:14;1999.90;;;999.90;;
5929;SDS011;2990;48.746;9.236;2022-08-01T10:40:43;1999.90;;;999.90;;
5929;SDS011;2990;48.746;9.236;2022-08-01T10:43:10;1999.90;;;999.90;;
5929;SDS011;2990;48.746;9.236;2022-08-01T10:45:37;1999.90;;;999.90;;
5929;SDS011;2990;48.746;9.236;2022-08-01T10:50:57;1999.90;;;999.90;;
5929;SDS011;2990;48.746;9.236;2022-08-01T10:53:28;1999.90;;;999.90;;
5929;SDS011;2990;48.746;9.236;2022-08-01T10:56:02;1999.90;;;999.90;;
5929;SDS011;2990;48.746;9.236;2022-08-01T11:01:41;1999.90;;;999.90;;
5929;SDS011;2990;48.746;9.236;2022-08-01T11:09:00;1999.90;;;999.90;;
5929;SDS011;2990;48.746;9.236;2022-08-01T11:11:28;1999.90;;;999.90;;
5929;SDS011;2990;48.746;9.236;2022-08-01T11:16:29;1999.90;;;999.90;;
5929;SDS011;2990;48.746;9.236;2022-08-01T11:18:57;1999.90;;;999.90;;
5929;SDS011;2990;48.746;9.236;2022-08-01T11:27:18;1999.90;;;999.90;;
5929;SDS011;2990;48.746;9.236;2022-08-01T11:30:17;1999.90;;;999.90;;
5929;SDS011;2990;48.746;9.236;2022-08-01T11:32:54;1999.90;;;999.90;;
5929;SDS011;2990;48.746;9.236;2022-08-01T11:35:24;1999.90;;;999.90;;
5929;SDS011;2990;48.746;9.236;2022-08-01T11:37:52;1999.90;;;999.90;;
5929;SDS011;2990;48.746;9.236;2022-08-01T11:40:26;1999.90;;;999.90;;
5929;SDS011;2990;48.746;9.236;2022-08-01T11:45:53;1999.90;;;999.90;;
5929;SDS011;2990;48.746;9.236;2022-08-01T11:48:23;1999.90;;;999.90;;
5929;SDS011;2990;48.746;9.236;2022-08-01T11:50:53;1999.90;;;999.90;;
5929;SDS011;2990;48.746;9.236;2022-08-01T11:53:20;1999.90;;;999.90;;
5929;SDS011;2990;48.746;9.236;2022-08-01T11:55:49;1999.90;;;999.90;;
5929;SDS011;2990;48.746;9.236;2022-08-01T11:58:23;1999.90;;;999.90;;
5929;SDS011;2990;48.746;9.236;2022-08-01T12:00:51;1999.90;;;999.90;;
5929;SDS011;2990;48.746;9.236;2022-08-01T12:03:27;1999.90;;;999.90;;
5929;SDS011;2990;48.746;9.236;2022-08-01T12:05:54;1999.90;;;999.90;;
5929;SDS011;2990;48.746;9.236;2022-08-01T12:08:24;1999.90;;;999.90;;
5929;SDS011;2990;48.746;9.236;2022-08-01T12:10:54;1999.90;;;999.90;;
5929;SDS011;2990;48.746;9.236;2022-08-01T12:13:20;1999.90;;;999.90;;
5929;SDS011;2990;48.746;9.236;2022-08-01T12:15:47;1999.90;;;999.90;;
5929;SDS011;2990;48.746;9.236;2022-08-01T12:18:14;1999.90;;;999.90;;
5929;SDS011;2990;48.746;9.236;2022-08-01T12:20:45;1999.90;;;999.90;;
5929;SDS011;2990;48.746;9.236;2022-08-01T12:23:13;1999.90;;;999.90;;
5929;SDS011;2990;48.746;9.236;2022-08-01T12:25:40;1999.90;;;999.90;;
5929;SDS011;2990;48.746;9.236;2022-08-01T12:28:10;1999.90;;;999.90;;
5929;SDS011;2990;48.746;9.236;2022-08-01T12:30:38;1999.90;;;999.90;;
5929;SDS011;2990;48.746;9.236;2022-08-01T12:33:05;1999.90;;;999.90;;
5929;SDS011;2990;48.746;9.236;2022-08-01T12:35:33;1999.90;;;999.90;;
5929;SDS011;2990;48.746;9.236;2022-08-01T12:38:21;1999.90;;;999.90;;
5929;SDS011;2990;48.746;9.236;2022-08-01T12:40:52;1999.90;;;999.90;;
5929;SDS011;2990;48.746;9.236;2022-08-01T12:43:18;1999.90;;;999.90;;
5929;SDS011;2990;48.746;9.236;2022-08-01T12:45:46;1999.90;;;999.90;;
5929;SDS011;2990;48.746;9.236;2022-08-01T12:48:14;1999.90;;;999.90;;
5929;SDS011;2990;48.746;9.236;2022-08-01T12:50:42;1999.90;;;999.90;;
5929;SDS011;2990;48.746;9.236;2022-08-01T12:53:09;1999.90;;;999.90;;
5929;SDS011;2990;48.746;9.236;2022-08-01T12:55:48;1999.90;;;999.90;;
5929;SDS011;2990;48.746;9.236;2022-08-01T12:58:16;1999.90;;;999.90;;
5929;SDS011;2990;48.746;9.236;2022-08-01T13:00:44;1999.90;;;999.90;;
5929;SDS011;2990;48.746;9.236;2022-08-01T13:03:13;1999.90;;;999.90;;
5929;SDS011;2990;48.746;9.236;2022-08-01T13:05:44;1999.90;;;999.90;;
5929;SDS011;2990;48.746;9.236;2022-08-01T13:08:36;1999.90;;;999.90;;
5929;SDS011;2990;48.746;9.236;2022-08-01T13:11:07;1999.90;;;999.90;;
5929;SDS011;2990;48.746;9.236;2022-08-01T13:13:39;1999.90;;;999.90;;
5929;SDS011;2990;48.746;9.236;2022-08-01T13:16:09;1999.90;;;999.90;;
5929;SDS011;2990;48.746;9.236;2022-08-01T13:18:37;1999.90;;;999.90;;
5929;SDS011;2990;48.746;9.236;2022-08-01T13:21:21;1999.90;;;999.90;;
5929;SDS011;2990;48.746;9.236;2022-08-01T13:24:07;1999.90;;;999.90;;
5929;SDS011;2990;48.746;9.236;2022-08-01T13:26:48;1999.90;;;999.90;;
5929;SDS011;2990;48.746;9.236;2022-08-01T13:29:16;1999.90;;;999.90;;
5929;SDS011;2990;48.746;9.236;2022-08-01T13:31:44;1999.90;;;999.90;;
5929;SDS011;2990;48.746;9.236;2022-08-01T13:34:10;1999.90;;;999.90;;
5929;SDS011;2990;48.746;9.236;2022-08-01T13:36:36;1999.90;;;999.90;;
5929;SDS011;2990;48.746;9.236;2022-08-01T13:39:03;1999.90;;;999.90;;
5929;SDS011;2990;48.746;9.236;2022-08-01T13:41:48;1999.90;;;999.90;;
5929;SDS011;2990;48.746;9.236;2022-08-01T13:44:14;1999.90;;;999.90;;
5929;SDS011;2990;48.746;9.236;2022-08-01T13:46:40;1999.90;;;999.90;;
5929;SDS011;2990;48.746;9.236;2022-08-01T13:49:07;1999.90;;;999.90;;
5929;SDS011;2990;48.746;9.236;2022-08-01T13:51:34;1999.90;;;999.90;;
5929;SDS011;2990;48.746;9.236;2022-08-01T13:53:59;1999.90;;;999.90;;
5929;SDS011;2990;48.746;9.236;2022-08-01T13:56:25;1999.90;;;999.90;;
5929;SDS011;2990;48.746;9.236;2022-08-01T13:58:55;1999.90;;;999.90;;
5929;SDS011;2990;48.746;9.236;2022-08-01T14:01:22;1999.90;;;999.90;;
5929;SDS011;2990;48.746;9.236;2022-08-01T14:03:49;1999.90;;;999.90;;
5929;SDS011;2990;48.746;9.236;2022-08-01T14:06:16;1999.90;;;999.90;;
5929;SDS011;2990;48.746;9.236;2022-08-01T14:11:17;1999.90;;;999.90;;
5929;SDS011;2990;48.746;9.236;2022-08-01T14:13:43;1999.90;;;999.90;;
5929;SDS011;2990;48.746;9.236;2022-08-01T14:16:08;1999.90;;;999.90;;
5929;SDS011;2990;48.746;9.236;2022-08-01T14:18:34;1999.90;;;999.90;;
5929;SDS011;2990;48.746;9.236;2022-08-01T14:21:03;1999.90;;;999.90;;
5929;SDS011;2990;48.746;9.236;2022-08-01T14:23:34;1999.90;;;999.90;;
5929;SDS011;2990;48.746;9.236;2022-08-01T14:26:00;1999.90;;;999.90;;
5929;SDS011;2990;48.746;9.236;2022-08-01T14:28:26;1999.90;;;999.90;;
5929;SDS011;2990;48.746;9.236;2022-08-01T14:30:53;1999.90;;;999.90;;
5929;SDS011;2990;48.746;9.236;2022-08-01T14:33:20;1999.90;;;999.90;;
5929;SDS011;2990;48.746;9.236;2022-08-01T14:35:46;1999.90;;;999.90;;
5929;SDS011;2990;48.746;9.236;2022-08-01T14:38:12;1999.90;;;999.90;;
5929;SDS011;2990;48.746;9.236;2022-08-01T14:40:38;1999.90;;;999.90;;
5929;SDS011;2990;48.746;9.236;2022-08-01T14:43:05;1999.90;;;999.90;;
5929;SDS011;2990;48.746;9.236;2022-08-01T14:45:31;1999.90;;;999.90;;
5929;SDS011;2990;48.746;9.236;2022-08-01T14:47:57;1999.90;;;999.90;;
5929;SDS011;2990;48.746;9.236;2022-08-01T14:50:24;1999.90;;;999.90;;
5929;SDS011;2990;48.746;9.236;2022-08-01T14:52:52;1999.90;;;999.90;;
5929;SDS011;2990;48.746;9.236;2022-08-01T14:55:18;1999.90;;;999.90;;
5929;SDS011;2990;48.746;9.236;2022-08-01T14:57:48;1999.90;;;999.90;;